Time;durP1;ratioP1;P1;durP2;ratioP2;P2;SDS_P1;SDS_P2;PMS_P1;PMS_P2;Temp;Humidity;BMP_temperature;BMP_pressure;BME280_temperature;BME280_humidity;BME280_pressure;Samples;Min_cycle;Max_cycle;Signal;HPM_P1;HPM_P2
2023/03/10 00:00:43;;;;;;;32.10;25.73;;;1.30;99.90;;;;;;5064812;28;20342;-74
2023/03/10 00:03:09;;;;;;;33.00;25.87;;;1.30;99.90;;;;;;5095824;28;20139;-76
2023/03/10 00:05:36;;;;;;;32.43;25.80;;;1.40;99.90;;;;;;5082633;28;20044;-75
2023/03/10 00:08:02;;;;;;;32.07;25.90;;;1.30;99.90;;;;;;5048840;28;20047;-76
2023/03/10 00:10:28;;;;;;;35.50;27.53;;;1.40;99.90;;;;;;5068639;28;20071;-76
2023/03/10 00:12:54;;;;;;;33.80;26.97;;;1.30;99.90;;;;;;5082128;28;20067;-76
2023/03/10 00:15:20;;;;;;;32.67;25.67;;;1.30;99.90;;;;;;5080024;28;20040;-76
2023/03/10 00:17:51;;;;;;;33.47;27.10;;;1.40;99.90;;;;;;5083676;28;20289;-76
2023/03/10 00:20:17;;;;;;;32.38;25.73;;;1.30;99.90;;;;;;5064460;28;20044;-76
2023/03/10 00:22:43;;;;;;;35.30;28.33;;;1.30;99.90;;;;;;5082540;28;20482;-77
2023/03/10 00:25:10;;;;;;;35.43;28.33;;;1.30;99.90;;;;;;5082741;28;20097;-76
2023/03/10 00:27:35;;;;;;;32.90;27.27;;;1.30;99.90;;;;;;5062557;28;20101;-77
2023/03/10 00:30:02;;;;;;;32.33;26.50;;;1.30;99.90;;;;;;5029045;28;20052;-77
2023/03/10 00:32:27;;;;;;;31.73;26.90;;;1.30;99.90;;;;;;5060605;28;20079;-78
2023/03/10 00:34:53;;;;;;;31.63;26.50;;;1.40;99.90;;;;;;5053982;28;20064;-78
2023/03/10 00:37:19;;;;;;;36.20;29.13;;;1.30;99.90;;;;;;5050145;28;20040;-78
2023/03/10 00:39:52;;;;;;;34.97;27.27;;;1.40;99.90;;;;;;5086777;28;20038;-78
2023/03/10 00:42:19;;;;;;;33.60;28.00;;;1.40;99.90;;;;;;5068007;28;20109;-79
2023/03/10 00:44:45;;;;;;;31.70;27.47;;;1.30;99.90;;;;;;5066530;28;20310;-78
2023/03/10 00:47:14;;;;;;;32.97;27.57;;;1.50;99.90;;;;;;5066102;28;20612;-78
2023/03/10 00:49:39;;;;;;;32.93;28.27;;;1.30;99.90;;;;;;5066540;28;20071;-77
2023/03/10 00:52:05;;;;;;;31.23;27.50;;;1.30;99.90;;;;;;5047723;28;20602;-79
2023/03/10 00:54:31;;;;;;;32.43;27.27;;;1.30;99.90;;;;;;5079687;28;20043;-79
2023/03/10 00:56:57;;;;;;;32.67;28.83;;;1.30;99.90;;;;;;5065524;28;20096;-77
2023/03/10 00:59:23;;;;;;;36.13;29.03;;;1.30;99.90;;;;;;5083128;28;20127;-77
2023/03/10 01:01:48;;;;;;;31.70;27.67;;;1.30;99.90;;;;;;5080250;28;20115;-78
2023/03/10 01:04:17;;;;;;;33.57;28.40;;;1.30;99.90;;;;;;5066055;28;20048;-78
2023/03/10 01:06:46;;;;;;;34.47;28.87;;;1.30;99.90;;;;;;5065187;28;20048;-78
2023/03/10 01:09:12;;;;;;;34.73;28.53;;;1.30;99.90;;;;;;5066241;28;20047;-77
2023/03/10 01:11:38;;;;;;;35.20;28.87;;;1.40;99.90;;;;;;5064926;28;20120;-80
2023/03/10 01:14:06;;;;;;;34.73;28.77;;;1.30;99.90;;;;;;5047186;28;20052;-80
2023/03/10 01:16:32;;;;;;;33.90;28.93;;;1.30;99.90;;;;;;5070326;28;20066;-79
2023/03/10 01:18:59;;;;;;;34.10;29.20;;;1.30;99.90;;;;;;5048695;28;20882;-78
2023/03/10 01:21:29;;;;;;;34.17;28.67;;;1.30;99.90;;;;;;5065892;28;20056;-78
2023/03/10 01:23:55;;;;;;;35.17;29.33;;;1.30;99.90;;;;;;5080823;28;20501;-78
2023/03/10 01:26:22;;;;;;;33.77;29.10;;;1.30;99.90;;;;;;5047411;28;20066;-78
2023/03/10 01:28:48;;;;;;;33.13;27.87;;;1.30;99.90;;;;;;5067031;28;20081;-77
2023/03/10 01:31:15;;;;;;;32.53;27.23;;;1.30;99.90;;;;;;5064260;28;20472;-77
2023/03/10 01:33:41;;;;;;;34.03;27.83;;;1.30;99.90;;;;;;5082587;28;20078;-77
2023/03/10 01:36:20;;;;;;;32.03;27.37;;;1.20;99.90;;;;;;5063676;28;20629;-78
2023/03/10 01:38:47;;;;;;;35.80;28.13;;;1.30;99.90;;;;;;5080475;28;20136;-77
2023/03/10 01:41:13;;;;;;;37.93;29.40;;;1.20;99.90;;;;;;5082450;28;20052;-77
2023/03/10 01:43:50;;;;;;;32.07;27.30;;;1.30;99.90;;;;;;5080559;28;20202;-77
2023/03/10 01:46:42;;;;;;;34.90;28.20;;;1.30;99.90;;;;;;5097980;27;20119;-78
2023/03/10 01:49:29;;;;;;;37.63;29.17;;;1.20;99.90;;;;;;5063434;28;20071;-77
2023/03/10 01:52:00;;;;;;;36.53;29.73;;;1.20;99.90;;;;;;5080938;28;20056;-77
2023/03/10 01:54:45;;;;;;;34.77;28.03;;;1.20;99.90;;;;;;5064103;28;20067;-76
2023/03/10 01:57:13;;;;;;;35.77;28.23;;;1.30;99.90;;;;;;5081580;28;20040;-76
2023/03/10 01:59:40;;;;;;;36.13;29.20;;;1.30;99.90;;;;;;5084542;28;20457;-76
2023/03/10 02:02:07;;;;;;;36.57;29.20;;;1.30;99.90;;;;;;5066742;28;20047;-76
2023/03/10 02:04:37;;;;;;;33.63;28.20;;;1.30;99.90;;;;;;5067931;28;20039;-76
2023/03/10 02:07:06;;;;;;;37.67;29.43;;;1.30;99.90;;;;;;5068087;28;20134;-76
2023/03/10 02:09:35;;;;;;;35.93;29.37;;;1.20;99.90;;;;;;5084204;28;20054;-76
2023/03/10 02:12:03;;;;;;;34.13;28.37;;;1.20;99.90;;;;;;5082892;28;20055;-75
2023/03/10 02:14:31;;;;;;;36.10;29.43;;;1.20;99.90;;;;;;5066784;28;20394;-76
2023/03/10 02:16:57;;;;;;;36.87;29.63;;;1.30;99.90;;;;;;5066996;28;20036;-76
2023/03/10 02:19:37;;;;;;;38.33;31.03;;;1.30;99.90;;;;;;5068866;28;20040;-76
2023/03/10 02:22:06;;;;;;;35.97;29.53;;;1.30;99.90;;;;;;5085491;28;20047;-75
2023/03/10 02:24:47;;;;;;;36.95;28.92;;;1.20;99.90;;;;;;5082496;28;20324;-77
2023/03/10 02:27:16;;;;;;;40.50;30.40;;;1.20;99.90;;;;;;5063237;28;20494;-76
2023/03/10 02:30:00;;;;;;;36.60;29.20;;;1.20;99.90;;;;;;5081877;28;20040;-75
2023/03/10 02:32:30;;;;;;;36.27;28.97;;;1.20;99.90;;;;;;5062022;28;20115;-75
2023/03/10 02:34:56;;;;;;;36.47;29.67;;;1.20;99.90;;;;;;5080511;28;20097;-75
2023/03/10 02:37:25;;;;;;;40.77;31.73;;;1.20;99.90;;;;;;5068659;28;20040;-76
2023/03/10 02:39:51;;;;;;;41.50;32.00;;;1.20;99.90;;;;;;5065706;28;21896;-76
2023/03/10 02:42:18;;;;;;;41.17;32.97;;;1.20;99.90;;;;;;5082792;28;20067;-76
2023/03/10 02:44:46;;;;;;;42.00;33.37;;;1.20;99.90;;;;;;5068540;28;20050;-75
2023/03/10 02:47:12;;;;;;;43.47;34.10;;;1.20;99.90;;;;;;5081921;28;20048;-76
2023/03/10 02:49:39;;;;;;;45.87;35.40;;;1.20;99.90;;;;;;5084841;28;20047;-76
2023/03/10 02:52:10;;;;;;;46.43;37.43;;;1.20;99.90;;;;;;5082068;28;20044;-76
2023/03/10 02:54:36;;;;;;;47.87;37.73;;;1.30;99.90;;;;;;5068624;28;20407;-76
2023/03/10 02:57:02;;;;;;;50.13;38.10;;;1.20;99.90;;;;;;5066387;28;20050;-76
2023/03/10 02:59:28;;;;;;;52.00;40.13;;;1.20;99.90;;;;;;5064164;28;20105;-76
2023/03/10 03:01:53;;;;;;;51.87;39.87;;;1.20;99.90;;;;;;5076646;28;20114;-76
2023/03/10 03:04:19;;;;;;;49.77;39.60;;;1.20;99.90;;;;;;5050964;28;20100;-77
2023/03/10 03:06:45;;;;;;;52.63;39.83;;;1.20;99.90;;;;;;5061573;28;20250;-77
2023/03/10 03:09:11;;;;;;;52.10;39.80;;;1.20;99.90;;;;;;5053987;28;20500;-77
2023/03/10 03:11:36;;;;;;;47.07;37.33;;;1.20;99.90;;;;;;5066942;28;20032;-77
2023/03/10 03:14:02;;;;;;;50.63;38.93;;;1.30;99.90;;;;;;5078012;28;20044;-76
2023/03/10 03:16:28;;;;;;;49.60;37.60;;;1.30;99.90;;;;;;5090258;28;20053;-77
2023/03/10 03:18:57;;;;;;;52.10;37.97;;;1.30;99.90;;;;;;5082425;28;20044;-77
2023/03/10 03:21:22;;;;;;;51.30;37.33;;;1.30;99.90;;;;;;5062153;28;20452;-77
2023/03/10 03:23:48;;;;;;;46.13;35.90;;;1.30;99.90;;;;;;5080581;28;20036;-77
2023/03/10 03:26:22;;;;;;;44.23;34.10;;;1.30;99.90;;;;;;5079906;28;20039;-77
2023/03/10 03:28:48;;;;;;;41.27;32.13;;;1.20;99.90;;;;;;5086409;28;20074;-76
2023/03/10 03:31:16;;;;;;;40.63;31.43;;;1.20;99.90;;;;;;5067118;28;20044;-76
2023/03/10 03:33:42;;;;;;;40.57;31.63;;;1.30;99.90;;;;;;5066300;28;20043;-76
2023/03/10 03:36:12;;;;;;;40.17;30.53;;;1.20;99.90;;;;;;5063687;28;20143;-76
2023/03/10 03:38:39;;;;;;;38.35;29.08;;;1.30;99.90;;;;;;5078365;28;20046;-76
2023/03/10 03:41:05;;;;;;;38.17;29.43;;;1.20;99.90;;;;;;5071425;28;20132;-76
2023/03/10 03:43:31;;;;;;;37.80;27.63;;;1.20;99.90;;;;;;5084846;28;20048;-77
2023/03/10 03:45:57;;;;;;;35.07;27.97;;;1.30;99.90;;;;;;5066986;28;20048;-76
2023/03/10 03:48:23;;;;;;;35.93;28.20;;;1.30;99.90;;;;;;5084503;28;20047;-77
2023/03/10 03:50:49;;;;;;;31.57;25.43;;;1.30;99.90;;;;;;5082783;28;20047;-76
2023/03/10 03:53:15;;;;;;;32.40;24.83;;;1.20;99.90;;;;;;5082493;28;20067;-77
2023/03/10 03:55:40;;;;;;;36.83;27.10;;;1.20;99.90;;;;;;5065730;28;20045;-77
2023/03/10 03:58:07;;;;;;;33.03;24.80;;;1.20;99.90;;;;;;5085852;28;20048;-77
2023/03/10 04:00:37;;;;;;;30.73;23.93;;;1.20;99.90;;;;;;5049367;28;20065;-77
2023/03/10 04:03:03;;;;;;;32.95;24.42;;;1.30;99.90;;;;;;5081995;28;20058;-77
2023/03/10 04:05:29;;;;;;;30.27;23.97;;;1.20;99.90;;;;;;5083613;28;20044;-77
2023/03/10 04:07:55;;;;;;;30.70;24.27;;;1.20;99.90;;;;;;5080341;28;20040;-76
2023/03/10 04:10:25;;;;;;;30.93;24.70;;;1.20;99.90;;;;;;5086861;28;20040;-77
2023/03/10 04:12:51;;;;;;;30.53;24.00;;;1.30;99.90;;;;;;5087202;28;20043;-77
2023/03/10 04:15:17;;;;;;;29.23;22.77;;;1.30;99.90;;;;;;5067376;28;20047;-77
2023/03/10 04:17:43;;;;;;;26.43;22.30;;;1.40;99.90;;;;;;5068866;28;20039;-77
2023/03/10 04:20:13;;;;;;;31.77;24.53;;;1.30;99.90;;;;;;5068141;28;20095;-77
2023/03/10 04:22:39;;;;;;;28.80;23.30;;;1.30;99.90;;;;;;5083875;28;20051;-77
2023/03/10 04:25:06;;;;;;;29.20;23.33;;;1.30;99.90;;;;;;5070655;28;20048;-77
2023/03/10 04:27:32;;;;;;;30.13;23.73;;;1.30;99.90;;;;;;5085097;28;20060;-77
2023/03/10 04:29:58;;;;;;;29.13;23.33;;;1.30;99.90;;;;;;5053321;28;20040;-78
2023/03/10 04:32:24;;;;;;;29.60;23.43;;;1.30;99.90;;;;;;5085071;28;20134;-77
2023/03/10 04:34:51;;;;;;;28.10;22.90;;;1.30;99.90;;;;;;5087169;28;20043;-77
2023/03/10 04:37:16;;;;;;;28.73;23.03;;;1.30;99.90;;;;;;5088288;28;20032;-77
2023/03/10 04:39:42;;;;;;;29.13;23.33;;;1.30;99.90;;;;;;5064216;28;20040;-77
2023/03/10 04:42:08;;;;;;;27.80;22.57;;;1.30;99.90;;;;;;5066625;28;20054;-76
2023/03/10 04:44:34;;;;;;;28.07;23.00;;;1.30;99.90;;;;;;5050009;28;20347;-76
2023/03/10 04:47:00;;;;;;;33.77;24.20;;;1.30;99.90;;;;;;5083475;28;20064;-76
2023/03/10 04:49:26;;;;;;;29.30;23.37;;;1.40;99.90;;;;;;5081343;28;20095;-76
2023/03/10 04:51:52;;;;;;;27.10;22.43;;;1.30;99.90;;;;;;5068265;28;20494;-77
2023/03/10 04:54:18;;;;;;;28.97;23.30;;;1.30;99.90;;;;;;5084920;28;20127;-76
2023/03/10 04:56:43;;;;;;;28.40;22.97;;;1.30;99.90;;;;;;5068695;28;20107;-76
2023/03/10 04:59:09;;;;;;;28.90;23.57;;;1.30;99.90;;;;;;5083556;28;20426;-77
2023/03/10 05:01:35;;;;;;;29.07;23.70;;;1.40;99.90;;;;;;5083222;28;20559;-76
2023/03/10 05:04:03;;;;;;;30.30;24.03;;;1.30;99.90;;;;;;5051955;28;20052;-77
2023/03/10 05:06:29;;;;;;;30.40;23.23;;;1.30;99.90;;;;;;5067409;28;20044;-76
2023/03/10 05:08:55;;;;;;;28.63;23.03;;;1.30;99.90;;;;;;5065502;28;20124;-76
2023/03/10 05:11:22;;;;;;;30.93;24.17;;;1.30;99.90;;;;;;5050839;28;20080;-75
2023/03/10 05:13:49;;;;;;;31.83;24.07;;;1.30;99.90;;;;;;5066928;28;20398;-77
2023/03/10 05:16:20;;;;;;;31.50;24.60;;;1.30;99.90;;;;;;5068179;28;20044;-76
2023/03/10 05:18:46;;;;;;;32.33;25.73;;;1.30;99.90;;;;;;5083059;28;20051;-76
2023/03/10 05:21:13;;;;;;;34.53;24.97;;;1.30;99.90;;;;;;5067238;28;20048;-76
2023/03/10 05:23:39;;;;;;;33.07;25.87;;;1.20;99.90;;;;;;5085798;28;20137;-75
2023/03/10 05:26:07;;;;;;;32.70;25.27;;;1.20;99.90;;;;;;5085714;28;20126;-76
2023/03/10 05:28:33;;;;;;;33.50;26.53;;;1.20;99.90;;;;;;5067057;28;20040;-76
2023/03/10 05:30:59;;;;;;;32.63;25.10;;;1.30;99.90;;;;;;5069707;28;20051;-76
2023/03/10 05:33:25;;;;;;;35.03;26.97;;;1.20;99.90;;;;;;5086909;28;20044;-76
2023/03/10 05:35:51;;;;;;;37.27;28.63;;;1.20;99.90;;;;;;5067366;28;20151;-76
2023/03/10 05:38:17;;;;;;;38.90;28.53;;;1.20;99.90;;;;;;5098512;28;20228;-76
2023/03/10 05:40:43;;;;;;;37.73;28.87;;;1.30;99.90;;;;;;5070744;28;20051;-77
2023/03/10 05:43:10;;;;;;;39.17;29.30;;;1.30;99.90;;;;;;5082338;28;20036;-76
2023/03/10 05:45:36;;;;;;;39.37;29.80;;;1.30;99.90;;;;;;5066149;28;20055;-78
2023/03/10 05:48:02;;;;;;;44.47;31.83;;;1.30;99.90;;;;;;5085714;28;20054;-75
2023/03/10 05:50:28;;;;;;;41.90;30.70;;;1.30;99.90;;;;;;5084443;28;20040;-76
2023/03/10 05:52:54;;;;;;;41.90;31.30;;;1.30;99.90;;;;;;5067545;28;20055;-76
2023/03/10 05:55:23;;;;;;;43.80;31.87;;;1.20;99.90;;;;;;5083040;28;20040;-76
2023/03/10 05:57:49;;;;;;;43.50;32.77;;;1.20;99.90;;;;;;5066867;28;20567;-75
2023/03/10 06:00:16;;;;;;;46.37;33.97;;;1.30;99.90;;;;;;5049541;28;20051;-76
2023/03/10 06:02:41;;;;;;;48.57;35.53;;;1.30;99.90;;;;;;5051439;28;20346;-76
2023/03/10 06:05:11;;;;;;;51.23;37.37;;;1.30;99.90;;;;;;5049796;28;20176;-76
2023/03/10 06:07:37;;;;;;;53.70;37.40;;;1.30;99.90;;;;;;5071577;28;20956;-76
2023/03/10 06:10:04;;;;;;;57.17;37.57;;;1.30;99.90;;;;;;5052319;28;20075;-77
2023/03/10 06:12:31;;;;;;;53.00;37.77;;;1.20;99.90;;;;;;5066834;28;20058;-77
2023/03/10 06:14:57;;;;;;;57.73;38.37;;;1.30;99.90;;;;;;5068268;28;20081;-77
2023/03/10 06:17:23;;;;;;;59.37;40.53;;;1.30;99.90;;;;;;5076011;28;20502;-77
2023/03/10 06:19:51;;;;;;;63.00;41.17;;;1.30;99.90;;;;;;5077985;28;20093;-77
2023/03/10 06:22:17;;;;;;;61.50;41.47;;;1.30;99.90;;;;;;5065313;28;20399;-76
2023/03/10 06:24:44;;;;;;;60.40;40.73;;;1.30;99.90;;;;;;5080769;28;20044;-77
2023/03/10 06:27:10;;;;;;;59.83;42.83;;;1.30;99.90;;;;;;5049956;28;20131;-76
2023/03/10 06:29:36;;;;;;;64.17;43.10;;;1.30;99.90;;;;;;5062239;28;20051;-75
2023/03/10 06:32:02;;;;;;;68.17;44.40;;;1.40;99.90;;;;;;5050019;28;20040;-75
2023/03/10 06:34:28;;;;;;;63.50;43.90;;;1.30;99.90;;;;;;5084596;28;20055;-75
2023/03/10 06:36:55;;;;;;;60.67;42.60;;;1.30;99.90;;;;;;5046737;28;20044;-75
2023/03/10 06:39:21;;;;;;;62.60;43.00;;;1.30;99.90;;;;;;5066466;28;20128;-76
2023/03/10 06:41:46;;;;;;;58.23;40.87;;;1.30;99.90;;;;;;5081838;28;20114;-75
2023/03/10 06:44:17;;;;;;;62.77;43.07;;;1.30;99.90;;;;;;5082949;28;20055;-77
2023/03/10 06:46:44;;;;;;;64.17;43.30;;;1.30;99.90;;;;;;5066759;28;20084;-75
2023/03/10 06:49:10;;;;;;;67.80;43.63;;;1.30;99.90;;;;;;5049318;28;20040;-76
2023/03/10 06:51:36;;;;;;;66.40;44.40;;;1.30;99.90;;;;;;5064549;28;20113;-77
2023/03/10 06:54:02;;;;;;;64.20;43.63;;;1.30;99.90;;;;;;5066585;28;20383;-76
2023/03/10 06:56:27;;;;;;;67.80;43.23;;;1.30;99.90;;;;;;5065258;28;20043;-78
2023/03/10 06:58:53;;;;;;;59.97;43.17;;;1.30;99.90;;;;;;5081783;28;20039;-76
2023/03/10 07:01:31;;;;;;;65.23;44.40;;;1.40;99.90;;;;;;5049867;28;20414;-75
2023/03/10 07:03:57;;;;;;;63.20;42.90;;;1.30;99.90;;;;;;5068132;28;20088;-77
2023/03/10 07:06:24;;;;;;;69.50;44.97;;;1.40;99.90;;;;;;5071694;28;20046;-76
2023/03/10 07:08:51;;;;;;;66.53;42.97;;;1.40;99.90;;;;;;5073085;28;20044;-76
2023/03/10 07:11:17;;;;;;;63.00;43.13;;;1.30;99.90;;;;;;5088738;28;20511;-76
2023/03/10 07:13:43;;;;;;;65.53;43.57;;;1.30;99.90;;;;;;5084674;28;20051;-75
2023/03/10 07:16:09;;;;;;;59.53;42.13;;;1.40;99.90;;;;;;5080151;28;20048;-75
2023/03/10 07:18:35;;;;;;;59.07;41.37;;;1.40;99.90;;;;;;5071926;28;20152;-75
2023/03/10 07:21:01;;;;;;;63.20;42.53;;;1.30;99.90;;;;;;5052931;28;20048;-75
2023/03/10 07:23:27;;;;;;;57.70;41.67;;;1.30;99.90;;;;;;5081257;28;20700;-75
2023/03/10 07:25:57;;;;;;;57.93;39.93;;;1.40;99.90;;;;;;5084782;28;20059;-76
2023/03/10 07:28:24;;;;;;;53.38;38.15;;;1.40;99.90;;;;;;5083798;28;20459;-76
2023/03/10 07:30:51;;;;;;;54.50;38.37;;;1.40;99.90;;;;;;5080568;28;20140;-75
2023/03/10 07:33:17;;;;;;;52.50;38.37;;;1.40;99.90;;;;;;5107638;28;20047;-76
2023/03/10 07:35:43;;;;;;;49.03;37.47;;;1.40;99.90;;;;;;5087918;28;20048;-77
2023/03/10 07:38:08;;;;;;;50.37;36.80;;;1.50;99.90;;;;;;5064482;28;20044;-76
2023/03/10 07:40:34;;;;;;;50.00;37.20;;;1.40;99.90;;;;;;5082839;28;20861;-76
2023/03/10 07:43:00;;;;;;;50.63;37.33;;;1.40;99.90;;;;;;5071231;28;20775;-76
2023/03/10 07:45:27;;;;;;;48.50;35.50;;;1.30;99.90;;;;;;5096773;27;20040;-76
2023/03/10 07:47:53;;;;;;;51.60;37.07;;;1.40;99.90;;;;;;5082507;28;20048;-76
2023/03/10 07:50:20;;;;;;;54.07;37.97;;;1.40;99.90;;;;;;5089619;27;20572;-76
2023/03/10 07:52:46;;;;;;;52.13;37.43;;;1.40;99.90;;;;;;5078275;28;20044;-76
2023/03/10 07:55:12;;;;;;;50.87;36.97;;;1.40;99.90;;;;;;5083684;28;20109;-78
2023/03/10 07:57:38;;;;;;;51.17;36.63;;;1.40;99.90;;;;;;5076664;28;20040;-76
2023/03/10 08:00:05;;;;;;;48.77;36.30;;;1.40;99.90;;;;;;5074516;28;20054;-77
2023/03/10 08:02:31;;;;;;;50.13;36.47;;;1.40;99.90;;;;;;5062087;28;20040;-76
2023/03/10 08:05:00;;;;;;;48.53;35.73;;;1.40;99.90;;;;;;5049935;28;20055;-77
2023/03/10 08:07:26;;;;;;;46.53;35.30;;;1.40;99.90;;;;;;5057971;28;20507;-77
2023/03/10 08:09:53;;;;;;;45.30;34.40;;;1.40;99.90;;;;;;5072662;28;20062;-77
2023/03/10 08:12:19;;;;;;;47.87;34.90;;;1.40;99.90;;;;;;5088397;28;20044;-76
2023/03/10 08:14:46;;;;;;;45.27;33.47;;;1.40;99.90;;;;;;5080920;28;20055;-76
2023/03/10 08:17:12;;;;;;;44.90;34.07;;;1.40;99.90;;;;;;5066240;28;20029;-76
2023/03/10 08:19:38;;;;;;;45.07;35.20;;;1.50;99.90;;;;;;5060148;28;20237;-76
2023/03/10 08:22:04;;;;;;;44.50;34.27;;;1.50;99.90;;;;;;5063470;28;20047;-76
2023/03/10 08:24:29;;;;;;;43.07;33.30;;;1.50;99.90;;;;;;5084413;28;20116;-76
2023/03/10 08:26:55;;;;;;;46.90;36.17;;;1.50;99.90;;;;;;5068757;28;20066;-76
2023/03/10 08:29:22;;;;;;;43.67;33.60;;;1.50;99.90;;;;;;5083779;28;20059;-76
2023/03/10 08:31:48;;;;;;;43.30;33.80;;;1.50;99.90;;;;;;5066708;28;20048;-76
2023/03/10 08:34:14;;;;;;;42.80;32.73;;;1.50;99.90;;;;;;5065088;28;20055;-76
2023/03/10 08:36:40;;;;;;;44.70;33.23;;;1.50;99.90;;;;;;5066530;28;20044;-76
2023/03/10 08:39:07;;;;;;;45.83;33.77;;;1.60;99.90;;;;;;5051588;28;20137;-75
2023/03/10 08:41:41;;;;;;;41.97;33.10;;;1.50;99.90;;;;;;5084562;28;21065;-76
2023/03/10 08:44:10;;;;;;;43.93;32.73;;;1.50;99.90;;;;;;5067298;28;20609;-76
2023/03/10 08:46:36;;;;;;;46.67;34.87;;;1.50;99.90;;;;;;5062735;28;20060;-76
2023/03/10 08:49:02;;;;;;;42.70;33.27;;;1.50;99.90;;;;;;5080455;28;20826;-76
2023/03/10 08:51:28;;;;;;;45.33;33.07;;;1.50;99.90;;;;;;5062213;28;20047;-76
2023/03/10 08:53:57;;;;;;;44.53;32.83;;;1.50;99.90;;;;;;5047889;28;20521;-77
2023/03/10 08:56:24;;;;;;;45.30;32.50;;;1.50;99.90;;;;;;5080282;28;20513;-76
2023/03/10 08:58:53;;;;;;;46.23;33.50;;;1.50;99.90;;;;;;5077960;28;20040;-76
2023/03/10 09:01:18;;;;;;;44.03;33.07;;;1.50;99.90;;;;;;5081817;28;20062;-77
2023/03/10 09:03:45;;;;;;;40.80;32.23;;;1.50;99.90;;;;;;5062227;28;20114;-76
2023/03/10 09:06:11;;;;;;;44.63;33.77;;;1.50;99.90;;;;;;5070281;28;20072;-77
2023/03/10 09:08:38;;;;;;;45.13;34.23;;;1.40;99.90;;;;;;5081145;28;20044;-76
2023/03/10 09:11:04;;;;;;;41.30;32.03;;;1.50;99.90;;;;;;5096153;27;20048;-76
2023/03/10 09:13:30;;;;;;;42.40;33.47;;;1.50;99.90;;;;;;5054225;28;20097;-74
2023/03/10 09:15:56;;;;;;;43.90;33.00;;;1.60;99.90;;;;;;5083355;28;20055;-74
2023/03/10 09:18:21;;;;;;;40.10;32.13;;;1.60;99.90;;;;;;5075093;28;20555;-75
2023/03/10 09:20:47;;;;;;;43.07;32.50;;;1.50;99.90;;;;;;5072924;28;20055;-74
2023/03/10 09:23:14;;;;;;;42.20;32.67;;;1.60;99.90;;;;;;5079954;28;20635;-75
2023/03/10 09:25:41;;;;;;;41.10;32.90;;;1.50;99.90;;;;;;5078572;28;20059;-75
2023/03/10 09:28:08;;;;;;;40.00;31.07;;;1.60;99.90;;;;;;5093200;28;20047;-75
2023/03/10 09:30:36;;;;;;;38.63;31.63;;;1.50;99.90;;;;;;5085801;28;20582;-76
2023/03/10 09:33:07;;;;;;;42.97;32.37;;;1.60;99.90;;;;;;5088577;28;20044;-76
2023/03/10 09:35:33;;;;;;;42.37;31.43;;;1.50;99.90;;;;;;5084428;28;20044;-76
2023/03/10 09:37:59;;;;;;;41.30;32.20;;;1.50;99.90;;;;;;5091954;28;20541;-75
2023/03/10 09:40:27;;;;;;;38.97;30.10;;;1.50;99.90;;;;;;5089320;28;20053;-76
2023/03/10 09:42:59;;;;;;;38.63;30.70;;;1.50;99.90;;;;;;5084512;28;20054;-75
2023/03/10 09:45:42;;;;;;;40.13;31.33;;;1.60;99.90;;;;;;5085197;28;20584;-76
2023/03/10 09:48:27;;;;;;;41.23;30.97;;;1.60;99.90;;;;;;5072361;28;20078;-74
2023/03/10 09:50:55;;;;;;;40.07;32.50;;;1.50;99.90;;;;;;5086903;28;20079;-74
2023/03/10 09:53:39;;;;;;;40.63;32.73;;;1.60;99.90;;;;;;5087567;28;20052;-75
2023/03/10 09:56:22;;;;;;;43.23;32.97;;;1.60;99.90;;;;;;5087294;28;20040;-75
2023/03/10 09:59:01;;;;;;;39.93;31.67;;;1.60;99.90;;;;;;5115448;27;20455;-75
2023/03/10 10:01:30;;;;;;;41.63;32.23;;;1.50;99.90;;;;;;5093860;28;20044;-75
2023/03/10 10:04:14;;;;;;;42.67;32.33;;;1.60;99.90;;;;;;5108956;27;20399;-75
2023/03/10 10:06:45;;;;;;;41.60;31.90;;;1.60;99.90;;;;;;5074571;28;20512;-76
2023/03/10 10:09:26;;;;;;;44.70;32.67;;;1.60;99.90;;;;;;5070600;28;20457;-75
2023/03/10 10:11:53;;;;;;;41.47;32.40;;;1.60;99.90;;;;;;5102195;28;20040;-75
2023/03/10 10:14:27;;;;;;;45.60;33.87;;;1.60;99.90;;;;;;5060073;28;20048;-76
2023/03/10 10:17:12;;;;;;;41.60;32.50;;;1.60;99.90;;;;;;5105602;27;20436;-75
2023/03/10 10:19:39;;;;;;;44.37;33.87;;;1.60;99.90;;;;;;5081467;28;20086;-75
2023/03/10 10:22:27;;;;;;;48.07;36.03;;;1.60;99.90;;;;;;5083116;28;20503;-75
2023/03/10 10:25:21;;;;;;;45.53;34.47;;;1.60;99.90;;;;;;5074638;28;20047;-76
2023/03/10 10:27:51;;;;;;;48.93;36.23;;;1.60;99.90;;;;;;5093634;28;20059;-75
2023/03/10 10:30:31;;;;;;;46.33;35.83;;;1.60;99.90;;;;;;5088315;28;20047;-75
2023/03/10 10:33:05;;;;;;;;;;;1.60;99.90;;;;;;5092719;28;20406;-75
2023/03/10 10:35:52;;;;;;;50.50;37.73;;;1.60;99.90;;;;;;5092770;28;19974;-76
2023/03/10 10:38:24;;;;;;;49.57;37.90;;;1.50;99.90;;;;;;5055985;28;20055;-76
2023/03/10 10:40:57;;;;;;;51.10;38.40;;;1.60;99.90;;;;;;5080030;28;20040;-75
2023/03/10 10:43:23;;;;;;;50.53;37.73;;;1.60;99.90;;;;;;5086107;28;20048;-75
2023/03/10 10:46:08;;;;;;;55.63;39.97;;;1.60;99.90;;;;;;5073214;28;20048;-75
2023/03/10 10:48:34;;;;;;;53.50;39.53;;;1.60;99.90;;;;;;5045794;28;20484;-73
2023/03/10 10:51:00;;;;;;;54.97;40.07;;;1.60;99.90;;;;;;5067898;28;20362;-73
2023/03/10 10:53:32;;;;;;;49.63;38.13;;;1.60;99.90;;;;;;5066270;28;20126;-74
2023/03/10 10:56:15;;;;;;;48.20;37.47;;;1.60;99.90;;;;;;5048719;28;20040;-72
2023/03/10 10:58:43;;;;;;;51.97;39.50;;;1.60;99.90;;;;;;5058682;28;20596;-73
2023/03/10 11:01:14;;;;;;;53.17;38.77;;;1.60;99.90;;;;;;5074549;28;20047;-75
2023/03/10 11:03:42;;;;;;;53.43;39.90;;;1.60;99.90;;;;;;5075314;28;20467;-74
2023/03/10 11:06:28;;;;;;;57.10;38.67;;;1.60;99.90;;;;;;5074902;28;20043;-76
2023/03/10 11:09:07;;;;;;;54.50;39.23;;;1.50;99.90;;;;;;5070523;28;20368;-77
2023/03/10 11:11:57;;;;;;;52.80;38.50;;;1.50;99.90;;;;;;5073928;28;20127;-76
2023/03/10 11:14:23;;;;;;;;;;;1.50;99.90;;;;;;5081571;28;20035;-77
2023/03/10 11:17:00;;;;;;;58.60;39.40;;;1.50;99.90;;;;;;5078453;28;20147;-75
2023/03/10 11:19:32;;;;;;;59.27;40.27;;;1.50;99.90;;;;;;5082549;28;20095;-74
2023/03/10 11:22:06;;;;;;;53.27;38.33;;;1.50;99.90;;;;;;5078070;28;20051;-74
2023/03/10 11:25:19;;;;;;;51.27;37.90;;;1.50;99.90;;;;;;5084564;28;20127;-74
2023/03/10 11:27:57;;;;;;;55.53;39.57;;;1.50;99.90;;;;;;5065923;28;20053;-74
2023/03/10 11:30:30;;;;;;;56.57;39.00;;;1.50;99.90;;;;;;5077524;28;20507;-74
2023/03/10 11:33:12;;;;;;;56.07;38.37;;;1.40;99.90;;;;;;5088241;28;20482;-75
2023/03/10 11:35:45;;;;;;;54.63;38.57;;;1.50;99.90;;;;;;5075512;28;20048;-74
2023/03/10 11:38:41;;;;;;;56.93;38.63;;;1.50;99.90;;;;;;5069792;28;20135;-75
2023/03/10 11:41:18;;;;;;;53.37;36.93;;;1.50;99.90;;;;;;5074380;28;20822;-74
2023/03/10 11:44:21;;;;;;;51.07;36.63;;;1.50;99.90;;;;;;5070370;28;20085;-75
2023/03/10 11:46:52;;;;;;;50.77;35.63;;;1.50;99.90;;;;;;5044086;28;20056;-74
2023/03/10 11:49:25;;;;;;;53.80;38.60;;;1.50;99.90;;;;;;5091835;28;20294;-76
2023/03/10 11:52:05;;;;;;;51.87;36.20;;;1.50;99.90;;;;;;5078209;28;20048;-76
2023/03/10 11:54:34;;;;;;;51.10;36.60;;;1.60;99.90;;;;;;5077125;28;20040;-76
2023/03/10 11:57:05;;;;;;;47.47;34.72;;;1.50;99.90;;;;;;5077990;28;20048;-75
2023/03/10 11:59:40;;;;;;;47.80;34.57;;;1.40;99.90;;;;;;5071741;28;20043;-75
2023/03/10 12:02:17;;;;;;;47.47;35.40;;;1.40;99.90;;;;;;5053289;28;20052;-75
2023/03/10 12:05:09;;;;;;;49.03;34.27;;;1.40;99.90;;;;;;5075360;28;20072;-74
2023/03/10 12:07:39;;;;;;;46.70;35.60;;;1.50;99.90;;;;;;5050599;28;20052;-75
2023/03/10 12:10:11;;;;;;;47.65;34.22;;;1.50;99.90;;;;;;5073757;28;20048;-75
2023/03/10 12:12:40;;;;;;;47.83;33.93;;;1.40;99.90;;;;;;5084981;28;20089;-75
2023/03/10 12:15:30;;;;;;;50.23;35.20;;;1.40;99.90;;;;;;5074506;28;20136;-74
2023/03/10 12:17:56;;;;;;;44.47;32.72;;;1.40;99.90;;;;;;5072837;28;20040;-75
2023/03/10 12:20:26;;;;;;;48.97;33.70;;;1.40;99.90;;;;;;5050162;28;20118;-76
2023/03/10 12:23:10;;;;;;;;;;;1.40;99.90;;;;;;5067657;28;20108;-76
2023/03/10 12:25:39;;;;;;;47.13;33.40;;;1.40;99.90;;;;;;5080246;28;19920;-75
2023/03/10 12:28:29;;;;;;;47.43;33.17;;;1.40;99.90;;;;;;5088817;28;20553;-75
2023/03/10 12:30:58;;;;;;;;;;;1.40;99.90;;;;;;5076886;28;20036;-75
2023/03/10 12:33:30;;;;;;;48.30;33.40;;;1.40;99.90;;;;;;5085421;28;19920;-75
2023/03/10 12:36:14;;;;;;;47.17;33.90;;;1.30;99.90;;;;;;5071161;28;20569;-76
2023/03/10 12:38:53;;;;;;;51.30;35.20;;;1.40;99.90;;;;;;5052826;28;20033;-76
2023/03/10 12:41:25;;;;;;;50.10;34.77;;;1.40;99.90;;;;;;5064692;28;20131;-75
2023/03/10 12:43:59;;;;;;;50.83;34.97;;;1.30;99.90;;;;;;5087225;28;20032;-73
2023/03/10 12:46:48;;;;;;;52.87;34.90;;;1.40;99.90;;;;;;5083094;28;20044;-73
2023/03/10 12:49:25;;;;;;;48.53;33.10;;;1.30;99.90;;;;;;5079734;28;20386;-74